createdAt,value
2022-09-05T00:01:08.877Z,0.70
2022-09-05T00:03:47.589Z,0.82
2022-09-05T00:06:17.526Z,0.85
2022-09-05T00:11:43.872Z,1.00
2022-09-05T00:24:19.570Z,0.85
2022-09-05T00:24:29.051Z,0.70
2022-09-05T00:29:28.902Z,1.27
2022-09-05T00:32:20.641Z,0.73
2022-09-05T00:35:14.521Z,0.88
2022-09-05T00:40:39.198Z,1.15
2022-09-05T00:43:12.991Z,0.90
2022-09-05T00:46:04.122Z,0.60
2022-09-05T00:48:43.960Z,0.82
2022-09-05T00:51:38.327Z,0.68
2022-09-05T00:54:26.401Z,0.85
2022-09-05T01:02:59.643Z,0.90
2022-09-05T01:05:49.154Z,0.82
2022-09-05T01:08:43.418Z,0.93
2022-09-05T01:11:27.803Z,0.90
2022-09-05T01:14:27.475Z,1.00
2022-09-05T01:17:27.841Z,0.85
2022-09-05T01:25:27.285Z,0.95
2022-09-05T01:29:13.716Z,0.70
2022-09-05T01:34:09.815Z,0.70
2022-09-05T01:36:44.298Z,0.70
2022-09-05T01:40:10.549Z,0.90
2022-09-05T01:45:50.861Z,0.80
2022-09-05T01:48:59.765Z,0.68
2022-09-05T01:51:47.765Z,0.90
2022-09-05T01:54:34.511Z,0.90
2022-09-05T01:57:31.865Z,1.02
2022-09-05T02:00:21.720Z,0.90
2022-09-05T02:09:00.346Z,1.02
2022-09-05T02:11:58.631Z,1.30
2022-09-05T02:14:40.141Z,1.00
2022-09-05T02:17:23.722Z,0.85
2022-09-05T02:20:23.954Z,1.10
2022-09-05T02:23:35.162Z,1.30
2022-09-05T02:31:50.505Z,1.33
2022-09-05T02:37:08.231Z,1.15
2022-09-05T02:45:01.754Z,0.80
2022-09-05T02:45:08.326Z,1.30
2022-09-05T02:46:08.050Z,1.10
2022-09-05T02:57:37.798Z,1.30
2022-09-05T02:58:07.489Z,0.90
2022-09-05T03:00:57.379Z,0.98
2022-09-05T03:03:42.293Z,1.50
2022-09-05T03:06:34.895Z,1.30
2022-09-05T03:09:33.571Z,1.52
2022-09-05T03:28:15.373Z,1.50
2022-09-05T03:31:22.268Z,2.70
2022-09-05T03:34:06.694Z,1.60
2022-09-05T03:36:53.082Z,1.80
2022-09-05T03:39:20.186Z,1.73
2022-09-05T03:42:14.672Z,1.70
2022-09-05T03:57:08.629Z,1.75
2022-09-05T03:57:15.840Z,1.60
2022-09-05T03:57:41.674Z,1.60
2022-09-05T04:00:20.509Z,1.60
2022-09-05T04:08:07.370Z,2.00
2022-09-05T04:08:26.623Z,1.90
2022-09-05T04:14:48.379Z,2.08
2022-09-05T04:17:35.243Z,1.88
2022-09-05T04:20:12.318Z,1.83
2022-09-05T04:22:50.933Z,2.00
2022-09-05T04:25:47.924Z,2.03
2022-09-05T04:28:33.096Z,2.40
2022-09-05T04:47:19.762Z,1.98
2022-09-05T04:50:11.613Z,2.03
2022-09-05T04:52:55.463Z,2.45
2022-09-05T04:55:27.103Z,2.42
2022-09-05T05:00:13.048Z,2.28
2022-09-05T05:06:03.932Z,1.92
2022-09-05T05:10:30.337Z,2.75
2022-09-05T05:17:55.595Z,2.55
2022-09-05T05:18:13.274Z,2.60
2022-09-05T05:19:18.647Z,2.80
2022-09-05T05:21:57.983Z,2.53
2022-09-05T05:24:35.967Z,2.40
2022-09-05T05:32:46.760Z,2.20
2022-09-05T05:35:20.107Z,2.45
2022-09-05T05:37:55.025Z,2.30
2022-09-05T05:40:28.740Z,2.40
2022-09-05T05:43:15.888Z,2.25
2022-09-05T05:45:43.615Z,2.35
2022-09-05T05:48:22.999Z,2.58
2022-09-05T05:57:15.913Z,2.30
2022-09-05T06:00:29.645Z,2.30
2022-09-05T06:03:25.723Z,2.58
2022-09-05T06:06:01.625Z,3.28
2022-09-05T06:12:34.418Z,2.42
2022-09-05T06:15:01.181Z,2.60
2022-09-05T06:20:40.548Z,2.70
2022-09-05T06:23:38.857Z,2.60
2022-09-05T06:26:32.415Z,2.67
2022-09-05T06:29:12.959Z,2.25
2022-09-05T06:31:53.136Z,2.60
2022-09-05T06:34:49.996Z,2.63
2022-09-05T06:43:03.523Z,2.65
2022-09-05T06:45:42.032Z,2.28
2022-09-05T06:48:44.131Z,2.40
2022-09-05T06:51:15.516Z,2.33
2022-09-05T06:53:48.882Z,2.47
2022-09-05T06:56:25.688Z,2.30
2022-09-05T06:59:18.386Z,2.50
2022-09-05T07:07:09.840Z,3.13
2022-09-05T07:10:28.200Z,2.42
2022-09-05T07:13:05.667Z,2.63
2022-09-05T07:16:13.024Z,2.30
2022-09-05T07:18:50.666Z,2.33
2022-09-05T07:25:19.577Z,2.17
2022-09-05T07:28:28.637Z,2.40
2022-09-05T07:31:09.869Z,2.13
2022-09-05T07:33:39.359Z,1.98
2022-09-05T07:36:16.185Z,2.33
2022-09-05T07:39:02.299Z,2.50
2022-09-05T07:41:40.971Z,2.00
2022-09-05T07:50:05.108Z,2.10
2022-09-05T07:57:08.249Z,2.15
2022-09-05T07:57:10.787Z,1.80
2022-09-05T07:58:39.529Z,2.22
2022-09-05T08:01:12.746Z,2.10
2022-09-05T08:03:43.449Z,1.85
2022-09-05T08:14:38.562Z,1.63
2022-09-05T08:16:50.240Z,1.65
2022-09-05T08:19:38.965Z,1.83
2022-09-05T08:22:13.902Z,1.80
2022-09-05T08:25:03.309Z,1.90
2022-09-05T08:27:47.657Z,1.75
2022-09-05T08:30:25.928Z,1.65
2022-09-05T08:36:11.282Z,1.58
2022-09-05T08:38:42.827Z,1.65
2022-09-05T08:41:28.649Z,1.50
2022-09-05T08:46:39.202Z,1.77
2022-09-05T08:47:49.341Z,1.63
2022-09-05T08:50:55.855Z,1.60
2022-09-05T08:59:27.492Z,2.10
2022-09-05T09:02:47.151Z,1.50
2022-09-05T09:05:51.908Z,1.90
2022-09-05T09:08:32.742Z,1.60
2022-09-05T09:11:18.083Z,1.45
2022-09-05T09:14:38.050Z,1.58
2022-09-05T09:25:16.559Z,1.48
2022-09-05T09:28:48.344Z,1.50
2022-09-05T09:31:12.510Z,1.40
2022-09-05T09:34:23.579Z,1.88
2022-09-05T09:36:59.425Z,1.67
2022-09-05T09:44:53.654Z,1.48
2022-09-05T09:47:50.489Z,1.90
2022-09-05T09:50:58.193Z,1.20
2022-09-05T09:53:36.888Z,1.70
2022-09-05T09:56:17.349Z,1.70
2022-09-05T09:58:47.485Z,1.67
2022-09-05T10:10:43.854Z,1.70
2022-09-05T10:11:54.789Z,2.17
2022-09-05T10:14:54.175Z,2.08
2022-09-05T10:17:40.096Z,1.83
2022-09-05T10:20:22.552Z,1.45
2022-09-05T10:29:36.621Z,1.55
2022-09-05T10:35:09.624Z,1.58
2022-09-05T10:35:18.208Z,1.65
2022-09-05T10:37:54.671Z,1.90
2022-09-05T10:42:59.970Z,1.50
2022-09-05T10:51:04.609Z,2.38
2022-09-05T10:54:03.954Z,1.63
2022-09-05T10:56:46.445Z,2.00
2022-09-05T11:02:22.801Z,1.85
2022-09-05T11:02:47.247Z,1.92
2022-09-05T11:05:26.075Z,1.52
2022-09-05T11:11:34.536Z,1.67
2022-09-05T11:14:27.012Z,1.85
2022-09-05T11:17:07.901Z,1.80
2022-09-05T11:19:40.991Z,1.65
2022-09-05T11:22:23.766Z,1.63
2022-09-05T11:24:59.221Z,1.63
2022-09-05T11:27:36.754Z,2.08
2022-09-05T11:36:33.696Z,1.90
2022-09-05T11:39:56.619Z,2.10
2022-09-05T11:40:02.932Z,2.00
2022-09-05T11:42:35.713Z,1.80
2022-09-05T11:45:23.791Z,2.15
2022-09-05T11:48:07.486Z,2.25
2022-09-05T11:55:50.768Z,2.30
2022-09-05T11:58:45.493Z,2.33
2022-09-05T12:01:41.933Z,1.98
2022-09-05T12:04:44.579Z,1.77
2022-09-05T12:07:51.018Z,2.08
2022-09-05T12:10:47.569Z,2.25
2022-09-05T12:18:27.027Z,2.00
2022-09-05T12:21:19.489Z,2.33
2022-09-05T12:24:32.531Z,2.20
2022-09-05T12:27:41.629Z,2.30
2022-09-05T12:29:59.598Z,2.13
2022-09-05T12:34:49.642Z,2.50
2022-09-05T12:41:38.396Z,2.60
2022-09-05T12:44:36.589Z,2.42
2022-09-05T12:46:35.632Z,2.35
2022-09-05T12:49:12.533Z,2.60
2022-09-05T12:51:53.373Z,2.92
2022-09-05T12:54:34.748Z,2.45
2022-09-05T13:03:27.836Z,2.78
2022-09-05T13:06:01.066Z,2.58
2022-09-05T13:08:39.482Z,3.15
2022-09-05T13:14:52.527Z,2.65
2022-09-05T13:14:57.343Z,2.20
2022-09-05T13:16:55.613Z,2.28
2022-09-05T13:25:26.788Z,2.50
2022-09-05T13:28:01.107Z,2.75
2022-09-05T13:31:26.189Z,2.90
2022-09-05T13:38:00.764Z,2.20
2022-09-05T13:38:02.436Z,2.10
2022-09-05T13:39:27.553Z,2.03
2022-09-05T13:47:35.519Z,1.98
2022-09-05T13:50:29.094Z,2.15
2022-09-05T13:53:02.462Z,1.80
2022-09-05T13:55:47.922Z,2.20
2022-09-05T13:58:52.405Z,1.70
2022-09-05T14:01:48.407Z,2.30
2022-09-05T14:10:43.278Z,1.58
2022-09-05T14:13:28.910Z,1.58
2022-09-05T14:16:00.056Z,1.60
2022-09-05T14:18:58.362Z,1.65
2022-09-05T14:21:35.133Z,1.70
2022-09-05T14:24:28.557Z,1.60
2022-09-05T14:37:34.846Z,1.73
2022-09-05T14:37:49.607Z,1.85
2022-09-05T14:38:09.651Z,2.10
2022-09-05T14:40:43.541Z,1.98
2022-09-05T14:43:33.060Z,2.17
2022-09-05T14:46:06.884Z,2.08
2022-09-05T15:01:21.996Z,2.60
2022-09-05T15:02:52.510Z,2.13
2022-09-05T15:03:03.730Z,3.05
2022-09-05T15:05:32.203Z,1.90
2022-09-05T15:08:22.741Z,1.98
2022-09-05T15:12:16.710Z,2.20
2022-09-05T15:16:30.814Z,2.15
2022-09-05T15:18:58.232Z,1.80
2022-09-05T15:21:37.674Z,1.95
2022-09-05T15:24:24.611Z,1.27
2022-09-05T15:26:55.481Z,1.52
2022-09-05T15:29:30.509Z,1.42
2022-09-05T15:32:18.148Z,1.33
2022-09-05T15:39:44.841Z,1.65
2022-09-05T15:42:23.237Z,1.20
2022-09-05T15:45:09.359Z,1.30
2022-09-05T15:47:38.953Z,1.27
2022-09-05T15:50:21.885Z,0.98
2022-09-05T15:52:55.419Z,1.40
2022-09-05T15:55:25.564Z,1.00
2022-09-05T16:07:59.899Z,1.58
2022-09-05T16:10:38.517Z,1.20
2022-09-05T16:12:27.428Z,0.93
2022-09-05T16:15:07.189Z,1.20
2022-09-05T16:23:15.378Z,1.35
2022-09-05T16:23:58.050Z,1.23
2022-09-05T16:26:38.056Z,0.98
2022-09-05T16:29:26.532Z,1.00
2022-09-05T16:32:04.715Z,1.00
2022-09-05T16:34:58.364Z,0.90
2022-09-05T16:37:39.614Z,0.90
2022-09-05T16:40:07.182Z,0.63
2022-09-05T16:47:26.521Z,0.70
2022-09-05T16:49:59.816Z,0.98
2022-09-05T16:52:54.283Z,0.82
2022-09-05T16:55:29.645Z,0.70
2022-09-05T16:58:32.772Z,0.80
2022-09-05T17:01:05.334Z,0.77
2022-09-05T17:11:32.794Z,0.82
2022-09-05T17:14:14.648Z,0.90
2022-09-05T17:16:54.342Z,0.95
2022-09-05T17:19:31.500Z,0.98
2022-09-05T17:25:04.057Z,1.10
2022-09-05T17:29:17.945Z,1.00
2022-09-05T17:33:25.272Z,0.98
2022-09-05T17:36:33.560Z,0.60
2022-09-05T17:39:44.270Z,0.57
2022-09-05T17:42:42.760Z,0.90
2022-09-05T17:45:33.553Z,0.70
2022-09-05T17:48:00.873Z,0.80
2022-09-05T17:50:28.099Z,0.68
2022-09-05T17:57:34.602Z,0.85
2022-09-05T18:01:00.529Z,1.00
2022-09-05T18:03:37.174Z,0.70
2022-09-05T18:06:19.383Z,0.60
2022-09-05T18:08:49.418Z,1.08
2022-09-05T18:11:25.429Z,2.13
2022-09-05T18:19:34.702Z,1.00
2022-09-05T18:22:25.394Z,1.38
2022-09-05T18:25:28.716Z,0.70
2022-09-05T18:28:21.974Z,1.80
2022-09-05T18:30:49.985Z,1.20
2022-09-05T18:33:53.810Z,2.35
2022-09-05T18:41:27.612Z,2.30
2022-09-05T18:44:22.663Z,0.57
2022-09-05T18:46:53.480Z,0.80
2022-09-05T18:50:23.284Z,0.70
2022-09-05T18:52:32.437Z,0.65
2022-09-05T18:55:46.398Z,0.80
2022-09-05T19:01:50.157Z,0.60
2022-09-05T19:04:38.943Z,0.60
2022-09-05T19:07:13.429Z,0.68
2022-09-05T19:10:33.842Z,0.68
2022-09-05T19:12:58.730Z,1.00
2022-09-05T19:15:31.298Z,0.60
2022-09-05T19:21:23.361Z,0.73
2022-09-05T19:24:08.004Z,0.65
2022-09-05T19:26:35.514Z,0.50
2022-09-05T19:36:50.376Z,0.38
2022-09-05T19:36:56.668Z,0.60
2022-09-05T19:37:08.357Z,0.63
2022-09-05T19:37:48.859Z,0.43
2022-09-05T19:47:48.809Z,0.35
2022-09-05T19:47:51.104Z,0.47
2022-09-05T19:49:06.669Z,0.40
2022-09-05T19:51:35.784Z,0.50
2022-09-05T19:54:05.882Z,0.50
2022-09-05T19:56:40.711Z,0.32
2022-09-05T20:02:29.339Z,0.43
2022-09-05T20:05:03.867Z,0.40
2022-09-05T20:07:32.277Z,1.02
2022-09-05T20:10:05.764Z,1.10
2022-09-05T20:12:38.715Z,0.60
2022-09-05T20:15:35.832Z,0.60
2022-09-05T20:22:49.358Z,0.45
2022-09-05T20:25:35.481Z,0.60
2022-09-05T20:28:15.484Z,0.43
2022-09-05T20:30:50.379Z,0.50
2022-09-05T20:33:21.729Z,0.30
2022-09-05T20:43:08.463Z,0.50
2022-09-05T20:43:17.275Z,0.40
2022-09-05T20:44:55.036Z,0.60
2022-09-05T20:53:31.053Z,0.40
2022-09-05T20:54:16.807Z,0.50
2022-09-05T20:54:24.998Z,0.38
2022-09-05T20:56:16.277Z,0.60
2022-09-05T20:58:49.581Z,0.38
2022-09-05T21:06:33.724Z,0.50
2022-09-05T21:09:24.694Z,0.60
2022-09-05T21:11:58.860Z,0.30
2022-09-05T21:14:29.194Z,0.35
2022-09-05T21:17:00.943Z,0.63
2022-09-05T21:19:36.429Z,0.50
2022-09-05T21:22:08.663Z,0.47
2022-09-05T21:30:30.805Z,0.73
2022-09-05T21:33:11.478Z,0.50
2022-09-05T21:35:49.754Z,0.60
2022-09-05T21:38:32.604Z,0.43
2022-09-05T21:41:02.311Z,0.70
2022-09-05T21:47:35.296Z,0.60
2022-09-05T21:51:55.901Z,0.60
2022-09-05T21:59:18.060Z,0.75
2022-09-05T21:59:30.192Z,0.60
2022-09-05T22:00:15.634Z,0.57
2022-09-05T22:02:49.339Z,0.50
2022-09-05T22:05:28.002Z,0.50
2022-09-05T22:08:15.929Z,0.60
2022-09-05T22:15:28.949Z,0.40
2022-09-05T22:18:17.696Z,0.77
2022-09-05T22:21:31.649Z,0.50
2022-09-05T22:23:43.859Z,0.57
2022-09-05T22:26:11.602Z,0.47
2022-09-05T22:28:46.016Z,0.60
2022-09-05T22:31:14.724Z,0.60
2022-09-05T22:36:25.220Z,0.40
2022-09-05T22:38:53.346Z,0.40
2022-09-05T22:41:30.036Z,0.40
2022-09-05T22:44:08.099Z,0.52
2022-09-05T22:46:35.259Z,0.50
2022-09-05T22:49:02.904Z,0.50
2022-09-05T22:51:33.211Z,0.45
2022-09-05T22:59:06.565Z,0.40
2022-09-05T23:01:43.714Z,0.38
2022-09-05T23:04:11.019Z,0.57
2022-09-05T23:06:38.437Z,0.40
2022-09-05T23:09:05.493Z,0.40
2022-09-05T23:11:33.127Z,0.40
2022-09-05T23:14:00.292Z,0.50
2022-09-05T23:22:04.259Z,0.22
2022-09-05T23:24:31.385Z,0.55
2022-09-05T23:26:58.887Z,0.50
2022-09-05T23:29:27.001Z,0.40
2022-09-05T23:31:54.398Z,0.60
2022-09-05T23:34:21.648Z,0.52
2022-09-05T23:36:48.753Z,0.40
2022-09-05T23:42:00.030Z,0.65
2022-09-05T23:44:27.026Z,0.73
2022-09-05T23:46:54.399Z,0.70
2022-09-05T23:49:21.487Z,0.60
2022-09-05T23:51:48.732Z,0.45
2022-09-05T23:54:15.726Z,0.85
2022-09-05T23:56:42.748Z,0.43
